sensor_id;sensor_type;location;lat;lon;timestamp;pressure;altitude;pressure_sealevel;temperature;humidity
50123;BME280;36021;48.670;6.184;2023-01-06T00:00:00;99741.47;;;11.20;100.00
50123;BME280;36021;48.670;6.184;2023-01-06T00:02:25;99736.47;;;11.22;100.00
50123;BME280;36021;48.670;6.184;2023-01-06T00:04:51;99731.53;;;11.24;100.00
50123;BME280;36021;48.670;6.184;2023-01-06T00:07:16;99735.38;;;11.28;100.00
50123;BME280;36021;48.670;6.184;2023-01-06T00:09:43;99730.72;;;11.19;100.00
50123;BME280;36021;48.670;6.184;2023-01-06T00:12:10;99731.00;;;11.17;100.00
50123;BME280;36021;48.670;6.184;2023-01-06T00:14:35;99724.66;;;11.17;100.00
50123;BME280;36021;48.670;6.184;2023-01-06T00:17:01;99734.28;;;11.19;100.00
50123;BME280;36021;48.670;6.184;2023-01-06T00:19:26;99727.41;;;11.22;100.00
50123;BME280;36021;48.670;6.184;2023-01-06T00:21:52;99724.91;;;11.20;100.00
50123;BME280;36021;48.670;6.184;2023-01-06T00:24:17;99726.00;;;11.24;100.00
50123;BME280;36021;48.670;6.184;2023-01-06T00:26:44;99722.16;;;11.25;100.00
50123;BME280;36021;48.670;6.184;2023-01-06T00:29:10;99724.09;;;11.20;100.00
50123;BME280;36021;48.670;6.184;2023-01-06T00:31:36;99724.34;;;11.23;100.00
50123;BME280;36021;48.670;6.184;2023-01-06T00:34:02;99725.44;;;11.22;100.00
50123;BME280;36021;48.670;6.184;2023-01-06T00:36:28;99726.88;;;11.15;100.00
50123;BME280;36021;48.670;6.184;2023-01-06T00:38:53;99727.72;;;11.15;100.00
50123;BME280;36021;48.670;6.184;2023-01-06T00:41:19;99723.81;;;11.16;100.00
50123;BME280;36021;48.670;6.184;2023-01-06T00:44:03;99724.38;;;11.13;100.00
50123;BME280;36021;48.670;6.184;2023-01-06T00:46:29;99720.53;;;11.14;100.00
50123;BME280;36021;48.670;6.184;2023-01-06T00:48:56;99724.38;;;11.18;100.00
50123;BME280;36021;48.670;6.184;2023-01-06T00:51:22;99729.06;;;11.13;100.00
50123;BME280;36021;48.670;6.184;2023-01-06T00:53:47;99723.84;;;11.11;100.00
50123;BME280;36021;48.670;6.184;2023-01-06T00:56:13;99726.03;;;11.14;100.00
50123;BME280;36021;48.670;6.184;2023-01-06T00:58:38;99728.28;;;11.12;100.00
50123;BME280;36021;48.670;6.184;2023-01-06T01:01:04;99729.34;;;11.16;100.00
50123;BME280;36021;48.670;6.184;2023-01-06T01:03:31;99719.97;;;11.17;100.00
50123;BME280;36021;48.670;6.184;2023-01-06T01:06:01;99710.59;;;11.18;100.00
50123;BME280;36021;48.670;6.184;2023-01-06T01:08:27;99710.28;;;11.20;100.00
50123;BME280;36021;48.670;6.184;2023-01-06T01:10:53;99715.00;;;11.14;100.00
50123;BME280;36021;48.670;6.184;2023-01-06T01:13:18;99713.38;;;11.03;100.00
50123;BME280;36021;48.670;6.184;2023-01-06T01:15:44;99726.63;;;11.06;100.00
50123;BME280;36021;48.670;6.184;2023-01-06T01:18:10;99713.94;;;11.00;100.00
50123;BME280;36021;48.670;6.184;2023-01-06T01:20:35;99722.78;;;11.02;100.00
50123;BME280;36021;48.670;6.184;2023-01-06T01:23:01;99723.84;;;11.06;100.00
50123;BME280;36021;48.670;6.184;2023-01-06T01:25:28;99732.13;;;11.06;100.00
50123;BME280;36021;48.670;6.184;2023-01-06T01:27:53;99734.88;;;11.06;100.00
50123;BME280;36021;48.670;6.184;2023-01-06T01:30:19;99723.34;;;10.99;100.00
50123;BME280;36021;48.670;6.184;2023-01-06T01:32:45;99710.13;;;10.96;100.00
50123;BME280;36021;48.670;6.184;2023-01-06T01:35:11;99710.66;;;10.98;100.00
50123;BME280;36021;48.670;6.184;2023-01-06T01:37:38;99708.19;;;10.91;100.00
50123;BME280;36021;48.670;6.184;2023-01-06T01:40:03;99704.03;;;10.94;100.00
50123;BME280;36021;48.670;6.184;2023-01-06T01:42:29;99701.28;;;10.99;100.00
50123;BME280;36021;48.670;6.184;2023-01-06T01:47:29;99699.88;;;10.96;100.00
50123;BME280;36021;48.670;6.184;2023-01-06T01:49:58;99692.44;;;10.97;100.00
50123;BME280;36021;48.670;6.184;2023-01-06T01:52:25;99702.38;;;10.98;100.00
50123;BME280;36021;48.670;6.184;2023-01-06T01:54:51;99690.28;;;10.89;100.00
50123;BME280;36021;48.670;6.184;2023-01-06T01:57:19;99684.47;;;10.90;100.00
50123;BME280;36021;48.670;6.184;2023-01-06T01:59:47;99670.94;;;10.94;100.00
50123;BME280;36021;48.670;6.184;2023-01-06T02:02:13;99671.47;;;11.01;100.00
50123;BME280;36021;48.670;6.184;2023-01-06T02:04:40;99666.53;;;10.98;100.00
50123;BME280;36021;48.670;6.184;2023-01-06T02:07:09;99670.38;;;10.97;100.00
50123;BME280;36021;48.670;6.184;2023-01-06T02:09:37;99672.88;;;10.98;100.00
50123;BME280;36021;48.670;6.184;2023-01-06T02:12:04;99665.13;;;11.01;100.00
50123;BME280;36021;48.670;6.184;2023-01-06T02:14:30;99668.75;;;10.96;100.00
50123;BME280;36021;48.670;6.184;2023-01-06T02:32:47;99676.53;;;10.64;100.00
50123;BME280;36021;48.670;6.184;2023-01-06T02:35:30;99677.09;;;10.66;100.00
50123;BME280;36021;48.670;6.184;2023-01-06T02:50:54;99683.47;;;10.31;100.00
50123;BME280;36021;48.670;6.184;2023-01-06T02:53:24;99678.53;;;10.23;100.00
50123;BME280;36021;48.670;6.184;2023-01-06T02:55:55;99692.59;;;10.16;100.00
50123;BME280;36021;48.670;6.184;2023-01-06T03:03:35;99678.28;;;10.19;100.00
50123;BME280;36021;48.670;6.184;2023-01-06T03:06:04;99688.72;;;10.07;100.00
50123;BME280;36021;48.670;6.184;2023-01-06T03:08:31;99681.81;;;10.10;100.00
50123;BME280;36021;48.670;6.184;2023-01-06T03:10:58;99691.75;;;10.11;100.00
50123;BME280;36021;48.670;6.184;2023-01-06T03:15:56;99677.69;;;10.12;100.00
50123;BME280;36021;48.670;6.184;2023-01-06T03:18:21;99688.44;;;10.09;100.00
50123;BME280;36021;48.670;6.184;2023-01-06T03:20:48;99683.25;;;10.17;100.00
50123;BME280;36021;48.670;6.184;2023-01-06T03:23:16;99686.50;;;10.09;100.00
50123;BME280;36021;48.670;6.184;2023-01-06T03:25:42;99691.75;;;10.11;100.00
50123;BME280;36021;48.670;6.184;2023-01-06T03:28:09;99681.03;;;10.14;100.00
50123;BME280;36021;48.670;6.184;2023-01-06T03:30:44;99674.41;;;10.15;100.00
50123;BME280;36021;48.670;6.184;2023-01-06T03:43:36;99662.56;;;10.15;100.00
50123;BME280;36021;48.670;6.184;2023-01-06T03:53:50;99654.31;;;10.20;100.00
50123;BME280;36021;48.670;6.184;2023-01-06T03:58:53;99653.19;;;10.26;100.00
50123;BME280;36021;48.670;6.184;2023-01-06T04:01:19;99651.81;;;10.28;100.00
50123;BME280;36021;48.670;6.184;2023-01-06T04:03:46;99648.53;;;10.26;100.00
50123;BME280;36021;48.670;6.184;2023-01-06T04:06:12;99640.25;;;10.21;100.00
50123;BME280;36021;48.670;6.184;2023-01-06T04:08:39;99647.13;;;10.29;100.00
50123;BME280;36021;48.670;6.184;2023-01-06T04:11:06;99649.88;;;10.39;100.00
50123;BME280;36021;48.670;6.184;2023-01-06T04:13:32;99650.13;;;10.37;100.00
50123;BME280;36021;48.670;6.184;2023-01-06T04:15:57;99649.56;;;10.40;100.00
50123;BME280;36021;48.670;6.184;2023-01-06T04:18:23;99638.03;;;10.33;100.00
50123;BME280;36021;48.670;6.184;2023-01-06T04:20:50;99631.97;;;10.36;100.00
50123;BME280;36021;48.670;6.184;2023-01-06T04:23:27;99625.91;;;10.39;100.00
50123;BME280;36021;48.670;6.184;2023-01-06T04:25:57;99621.72;;;10.47;100.00
50123;BME280;36021;48.670;6.184;2023-01-06T04:28:32;99616.50;;;10.51;100.00
50123;BME280;36021;48.670;6.184;2023-01-06T04:30:59;99608.53;;;10.49;100.00
50123;BME280;36021;48.670;6.184;2023-01-06T04:33:26;99615.94;;;10.54;100.00
50123;BME280;36021;48.670;6.184;2023-01-06T04:35:55;99618.16;;;10.52;100.00
50123;BME280;36021;48.670;6.184;2023-01-06T04:38:21;99606.09;;;10.27;100.00
50123;BME280;36021;48.670;6.184;2023-01-06T04:40:47;99622.09;;;10.20;100.00
50123;BME280;36021;48.670;6.184;2023-01-06T04:43:12;99613.81;;;10.15;100.00
50123;BME280;36021;48.670;6.184;2023-01-06T04:45:40;99617.94;;;10.13;100.00
50123;BME280;36021;48.670;6.184;2023-01-06T04:48:07;99622.91;;;10.16;100.00
50123;BME280;36021;48.670;6.184;2023-01-06T04:50:33;99619.03;;;10.27;100.00
50123;BME280;36021;48.670;6.184;2023-01-06T04:52:58;99612.72;;;10.26;100.00
50123;BME280;36021;48.670;6.184;2023-01-06T04:55:24;99614.63;;;10.26;100.00
50123;BME280;36021;48.670;6.184;2023-01-06T04:57:49;99613.25;;;10.23;100.00
50123;BME280;36021;48.670;6.184;2023-01-06T05:00:15;99624.81;;;10.25;100.00
50123;BME280;36021;48.670;6.184;2023-01-06T05:02:41;99627.59;;;10.20;100.00
50123;BME280;36021;48.670;6.184;2023-01-06T05:05:06;99625.91;;;10.24;100.00
50123;BME280;36021;48.670;6.184;2023-01-06T05:07:32;99628.13;;;10.22;100.00
50123;BME280;36021;48.670;6.184;2023-01-06T05:09:57;99627.31;;;10.22;100.00
50123;BME280;36021;48.670;6.184;2023-01-06T05:12:23;99629.50;;;10.15;100.00
50123;BME280;36021;48.670;6.184;2023-01-06T05:14:49;99618.75;;;10.18;100.00
50123;BME280;36021;48.670;6.184;2023-01-06T05:17:14;99635.56;;;10.22;100.00
50123;BME280;36021;48.670;6.184;2023-01-06T05:19:40;99633.91;;;10.26;100.00
50123;BME280;36021;48.670;6.184;2023-01-06T05:22:07;99635.56;;;10.22;100.00
50123;BME280;36021;48.670;6.184;2023-01-06T05:24:34;99636.41;;;10.22;100.00
50123;BME280;36021;48.670;6.184;2023-01-06T05:26:59;99640.22;;;10.31;100.00
50123;BME280;36021;48.670;6.184;2023-01-06T05:29:25;99635.84;;;10.25;100.00
50123;BME280;36021;48.670;6.184;2023-01-06T05:31:50;99646.88;;;10.30;100.00
50123;BME280;36021;48.670;6.184;2023-01-06T05:34:16;99638.59;;;10.30;100.00
50123;BME280;36021;48.670;6.184;2023-01-06T05:36:41;99639.44;;;10.26;100.00
50123;BME280;36021;48.670;6.184;2023-01-06T05:39:07;99635.84;;;10.20;100.00
50123;BME280;36021;48.670;6.184;2023-01-06T05:41:32;99644.94;;;10.21;100.00
50123;BME280;36021;48.670;6.184;2023-01-06T05:43:58;99648.53;;;10.16;100.00
50123;BME280;36021;48.670;6.184;2023-01-06T05:46:23;99643.53;;;10.13;100.00
50123;BME280;36021;48.670;6.184;2023-01-06T05:48:49;99646.28;;;10.13;100.00
50123;BME280;36021;48.670;6.184;2023-01-06T05:51:15;99645.75;;;10.06;100.00
50123;BME280;36021;48.670;6.184;2023-01-06T05:53:41;99655.09;;;10.05;100.00
50123;BME280;36021;48.670;6.184;2023-01-06T05:56:09;99657.28;;;10.08;100.00
50123;BME280;36021;48.670;6.184;2023-01-06T05:58:35;99656.19;;;10.09;100.00
50123;BME280;36021;48.670;6.184;2023-01-06T06:01:01;99665.56;;;10.13;100.00
50123;BME280;36021;48.670;6.184;2023-01-06T06:03:27;99654.56;;;10.18;100.00
50123;BME280;36021;48.670;6.184;2023-01-06T06:05:53;99663.97;;;10.17;100.00
50123;BME280;36021;48.670;6.184;2023-01-06T06:08:19;99666.66;;;10.12;100.00
50123;BME280;36021;48.670;6.184;2023-01-06T06:10:45;99663.34;;;9.95;100.00
50123;BME280;36021;48.670;6.184;2023-01-06T06:13:12;99673.03;;;9.98;100.00
50123;BME280;36021;48.670;6.184;2023-01-06T06:15:38;99668.59;;;10.02;100.00
50123;BME280;36021;48.670;6.184;2023-01-06T06:18:03;99690.91;;;10.05;100.00
50123;BME280;36021;48.670;6.184;2023-01-06T06:20:29;99672.44;;;9.95;100.00
50123;BME280;36021;48.670;6.184;2023-01-06T06:22:55;99683.19;;;9.97;100.00
50123;BME280;36021;48.670;6.184;2023-01-06T06:25:21;99678.78;;;9.96;100.00
50123;BME280;36021;48.670;6.184;2023-01-06T06:27:48;99676.03;;;9.96;100.00
50123;BME280;36021;48.670;6.184;2023-01-06T06:30:13;99674.91;;;9.82;100.00
50123;BME280;36021;48.670;6.184;2023-01-06T06:32:41;99679.34;;;9.88;100.00
50123;BME280;36021;48.670;6.184;2023-01-06T06:35:06;99674.91;;;9.92;100.00
50123;BME280;36021;48.670;6.184;2023-01-06T06:37:32;99667.78;;;9.91;100.00
50123;BME280;36021;48.670;6.184;2023-01-06T06:39:57;99674.66;;;9.99;100.00
50123;BME280;36021;48.670;6.184;2023-01-06T06:42:23;99674.66;;;9.93;100.00
50123;BME280;36021;48.670;6.184;2023-01-06T06:44:49;99673.28;;;9.91;100.00
50123;BME280;36021;48.670;6.184;2023-01-06T06:47:15;99665.03;;;9.81;100.00
50123;BME280;36021;48.670;6.184;2023-01-06T06:49:40;99683.16;;;9.82;100.00
50123;BME280;36021;48.670;6.184;2023-01-06T06:52:06;99685.38;;;9.85;100.00
50123;BME280;36021;48.670;6.184;2023-01-06T06:54:32;99684.31;;;9.91;100.00
50123;BME280;36021;48.670;6.184;2023-01-06T06:56:59;99683.47;;;9.90;100.00
50123;BME280;36021;48.670;6.184;2023-01-06T06:59:25;99677.69;;;9.87;100.00
50123;BME280;36021;48.670;6.184;2023-01-06T07:01:50;99682.91;;;9.93;100.00
50123;BME280;36021;48.670;6.184;2023-01-06T07:04:16;99684.59;;;9.94;100.00
50123;BME280;36021;48.670;6.184;2023-01-06T07:06:42;99680.44;;;9.97;100.00
50123;BME280;36021;48.670;6.184;2023-01-06T07:09:08;99681.53;;;9.96;100.00
50123;BME280;36021;48.670;6.184;2023-01-06T07:11:36;99676.59;;;9.93;100.00
50123;BME280;36021;48.670;6.184;2023-01-06T07:14:01;99677.97;;;9.90;100.00
50123;BME280;36021;48.670;6.184;2023-01-06T07:16:28;99680.97;;;9.89;100.00
50123;BME280;36021;48.670;6.184;2023-01-06T07:18:55;99677.13;;;9.90;100.00
50123;BME280;36021;48.670;6.184;2023-01-06T07:21:20;99678.78;;;9.91;100.00
50123;BME280;36021;48.670;6.184;2023-01-06T07:23:46;99674.91;;;9.92;100.00
50123;BME280;36021;48.670;6.184;2023-01-06T07:26:13;99675.47;;;9.89;100.00
50123;BME280;36021;48.670;6.184;2023-01-06T07:28:40;99678.22;;;9.89;100.00
50123;BME280;36021;48.670;6.184;2023-01-06T07:31:05;99686.75;;;9.92;100.00
50123;BME280;36021;48.670;6.184;2023-01-06T07:33:31;99692.56;;;9.91;100.00
50123;BME280;36021;48.670;6.184;2023-01-06T07:35:56;99692.00;;;9.89;100.00
50123;BME280;36021;48.670;6.184;2023-01-06T07:38:23;99693.38;;;9.86;100.00
50123;BME280;36021;48.670;6.184;2023-01-06T07:40:48;99704.66;;;9.90;100.00
50123;BME280;36021;48.670;6.184;2023-01-06T07:43:14;99692.00;;;9.89;100.00
50123;BME280;36021;48.670;6.184;2023-01-06T07:45:41;99689.81;;;9.91;100.00
50123;BME280;36021;48.670;6.184;2023-01-06T07:48:07;99696.66;;;9.88;100.00
50123;BME280;36021;48.670;6.184;2023-01-06T07:50:33;99696.94;;;9.92;100.00
50123;BME280;36021;48.670;6.184;2023-01-06T07:52:59;99703.84;;;9.89;100.00
50123;BME280;36021;48.670;6.184;2023-01-06T07:55:27;99715.13;;;9.88;100.00
50123;BME280;36021;48.670;6.184;2023-01-06T07:57:54;99715.13;;;9.88;100.00
50123;BME280;36021;48.670;6.184;2023-01-06T08:00:19;99712.66;;;9.86;100.00
50123;BME280;36021;48.670;6.184;2023-01-06T08:02:45;99700.81;;;9.91;100.00
50123;BME280;36021;48.670;6.184;2023-01-06T08:05:11;99703.28;;;9.87;100.00
50123;BME280;36021;48.670;6.184;2023-01-06T08:07:36;99712.38;;;9.93;100.00
50123;BME280;36021;48.670;6.184;2023-01-06T08:10:04;99712.91;;;9.95;100.00
50123;BME280;36021;48.670;6.184;2023-01-06T08:12:30;99717.91;;;10.03;100.00
50123;BME280;36021;48.670;6.184;2023-01-06T08:14:57;99708.53;;;9.99;100.00
50123;BME280;36021;48.670;6.184;2023-01-06T08:17:23;99718.16;;;10.12;100.00
50123;BME280;36021;48.670;6.184;2023-01-06T08:19:48;99725.66;;;10.16;100.00
50123;BME280;36021;48.670;6.184;2023-01-06T08:22:14;99726.72;;;10.10;100.00
50123;BME280;36021;48.670;6.184;2023-01-06T08:24:40;99725.88;;;10.10;100.00
50123;BME280;36021;48.670;6.184;2023-01-06T08:27:18;99724.81;;;10.16;100.00
50123;BME280;36021;48.670;6.184;2023-01-06T08:30:47;99732.53;;;10.14;100.00
50123;BME280;36021;48.670;6.184;2023-01-06T08:33:13;99731.69;;;10.13;100.00
50123;BME280;36021;48.670;6.184;2023-01-06T08:35:39;99731.16;;;10.16;100.00
50123;BME280;36021;48.670;6.184;2023-01-06T08:38:04;99730.88;;;10.18;100.00
50123;BME280;36021;48.670;6.184;2023-01-06T08:40:30;99736.66;;;10.21;100.00
50123;BME280;36021;48.670;6.184;2023-01-06T08:42:55;99732.00;;;10.17;100.00
50123;BME280;36021;48.670;6.184;2023-01-06T08:45:21;99736.66;;;10.16;100.00
50123;BME280;36021;48.670;6.184;2023-01-06T08:47:46;99732.81;;;10.22;100.00
50123;BME280;36021;48.670;6.184;2023-01-06T08:50:12;99734.19;;;10.25;100.00
50123;BME280;36021;48.670;6.184;2023-01-06T08:52:38;99736.13;;;10.29;100.00
50123;BME280;36021;48.670;6.184;2023-01-06T08:55:04;99728.94;;;10.28;100.00
50123;BME280;36021;48.670;6.184;2023-01-06T08:57:30;99731.72;;;10.23;100.00
50123;BME280;36021;48.670;6.184;2023-01-06T08:59:55;99732.81;;;10.27;100.00
50123;BME280;36021;48.670;6.184;2023-01-06T09:02:20;99729.53;;;10.30;100.00
50123;BME280;36021;48.670;6.184;2023-01-06T09:04:47;99728.97;;;10.33;100.00
50123;BME280;36021;48.670;6.184;2023-01-06T09:07:12;99728.94;;;10.38;100.00
50123;BME280;36021;48.670;6.184;2023-01-06T09:09:38;99725.63;;;10.41;100.00
50123;BME280;36021;48.670;6.184;2023-01-06T09:12:03;99721.22;;;10.40;100.00
50123;BME280;36021;48.670;6.184;2023-01-06T09:14:29;99711.56;;;10.48;100.00
50123;BME280;36021;48.670;6.184;2023-01-06T09:16:55;99706.06;;;10.38;100.00
50123;BME280;36021;48.670;6.184;2023-01-06T09:19:21;99713.53;;;10.42;100.00
50123;BME280;36021;48.670;6.184;2023-01-06T09:21:46;99711.88;;;10.36;100.00
50123;BME280;36021;48.670;6.184;2023-01-06T09:24:13;99709.63;;;10.54;100.00
50123;BME280;36021;48.670;6.184;2023-01-06T09:26:40;99704.66;;;10.61;100.00
50123;BME280;36021;48.670;6.184;2023-01-06T09:29:06;99712.91;;;10.86;100.00
50123;BME280;36021;48.670;6.184;2023-01-06T09:31:31;99711.19;;;11.00;100.00
50123;BME280;36021;48.670;6.184;2023-01-06T09:33:57;99704.25;;;11.13;100.00
50123;BME280;36021;48.670;6.184;2023-01-06T09:36:22;99714.94;;;11.29;100.00
50123;BME280;36021;48.670;6.184;2023-01-06T09:38:48;99715.50;;;11.31;100.00
50123;BME280;36021;48.670;6.184;2023-01-06T09:46:05;99728.44;;;11.41;100.00
50123;BME280;36021;48.670;6.184;2023-01-06T09:48:37;99728.69;;;11.39;100.00
50123;BME280;36021;48.670;6.184;2023-01-06T09:51:05;99719.88;;;11.37;100.00
50123;BME280;36021;48.670;6.184;2023-01-06T09:53:35;99731.41;;;11.49;100.00
50123;BME280;36021;48.670;6.184;2023-01-06T09:56:07;99729.97;;;11.62;100.00
50123;BME280;36021;48.670;6.184;2023-01-06T09:58:38;99744.13;;;11.45;100.00
50123;BME280;36021;48.670;6.184;2023-01-06T10:01:14;99742.53;;;11.34;100.00
50123;BME280;36021;48.670;6.184;2023-01-06T10:03:43;99739.69;;;11.49;100.00
50123;BME280;36021;48.670;6.184;2023-01-06T10:14:26;99738.91;;;11.39;100.00
50123;BME280;36021;48.670;6.184;2023-01-06T10:24:25;99733.72;;;11.22;100.00
50123;BME280;36021;48.670;6.184;2023-01-06T10:26:57;99733.22;;;11.15;100.00
50123;BME280;36021;48.670;6.184;2023-01-06T10:29:25;99737.66;;;11.06;100.00
50123;BME280;36021;48.670;6.184;2023-01-06T10:31:53;99743.16;;;11.06;100.00
50123;BME280;36021;48.670;6.184;2023-01-06T10:34:23;99744.59;;;10.88;100.00
50123;BME280;36021;48.670;6.184;2023-01-06T10:36:51;99743.75;;;10.98;100.00
50123;BME280;36021;48.670;6.184;2023-01-06T10:39:19;99746.22;;;10.99;100.00
50123;BME280;36021;48.670;6.184;2023-01-06T10:41:49;99746.13;;;11.30;100.00
50123;BME280;36021;48.670;6.184;2023-01-06T10:44:15;99730.94;;;11.37;100.00
50123;BME280;36021;48.670;6.184;2023-01-06T10:46:41;99721.47;;;11.48;100.00
50123;BME280;36021;48.670;6.184;2023-01-06T10:49:13;99718.75;;;11.43;100.00
50123;BME280;36021;48.670;6.184;2023-01-06T10:51:40;99722.59;;;11.42;100.00
50123;BME280;36021;48.670;6.184;2023-01-06T10:54:11;99723.69;;;11.46;100.00
50123;BME280;36021;48.670;6.184;2023-01-06T10:56:37;99717.34;;;11.46;100.00
50123;BME280;36021;48.670;6.184;2023-01-06T10:59:05;99708.66;;;11.78;100.00
50123;BME280;36021;48.670;6.184;2023-01-06T11:01:31;99706.31;;;11.95;100.00
50123;BME280;36021;48.670;6.184;2023-01-06T11:04:04;99705.66;;;12.08;100.00
50123;BME280;36021;48.670;6.184;2023-01-06T11:06:43;99703.63;;;11.85;100.00
50123;BME280;36021;48.670;6.184;2023-01-06T11:11:51;99700.16;;;11.64;100.00
50123;BME280;36021;48.670;6.184;2023-01-06T11:14:18;99688.28;;;11.64;100.00
50123;BME280;36021;48.670;6.184;2023-01-06T11:16:52;99687.72;;;11.62;100.00
50123;BME280;36021;48.670;6.184;2023-01-06T11:19:22;99691.66;;;11.50;100.00
50123;BME280;36021;48.670;6.184;2023-01-06T11:21:49;99698.38;;;11.34;100.00
50123;BME280;36021;48.670;6.184;2023-01-06T11:29:23;99689.44;;;11.58;100.00
50123;BME280;36021;48.670;6.184;2023-01-06T11:31:49;99692.41;;;11.66;100.00
50123;BME280;36021;48.670;6.184;2023-01-06T11:34:21;99682.19;;;11.67;100.00
50123;BME280;36021;48.670;6.184;2023-01-06T11:36:48;99695.25;;;11.51;100.00
50123;BME280;36021;48.670;6.184;2023-01-06T11:39:15;99687.66;;;11.23;100.00
50123;BME280;36021;48.670;6.184;2023-01-06T11:41:46;99677.13;;;11.35;100.00
50123;BME280;36021;48.670;6.184;2023-01-06T11:44:33;99691.25;;;11.23;100.00
50123;BME280;36021;48.670;6.184;2023-01-06T11:47:22;99680.19;;;11.23;100.00
50123;BME280;36021;48.670;6.184;2023-01-06T11:49:48;99683.25;;;11.22;100.00
50123;BME280;36021;48.670;6.184;2023-01-06T11:52:23;99684.06;;;11.27;100.00
50123;BME280;36021;48.670;6.184;2023-01-06T11:54:56;99689.03;;;11.25;100.00
50123;BME280;36021;48.670;6.184;2023-01-06T12:00:02;99694.13;;;11.52;100.00
50123;BME280;36021;48.670;6.184;2023-01-06T12:02:34;99689.38;;;11.68;100.00
50123;BME280;36021;48.670;6.184;2023-01-06T12:05:02;99682.16;;;11.77;100.00
50123;BME280;36021;48.670;6.184;2023-01-06T12:07:41;99677.09;;;11.89;100.00
50123;BME280;36021;48.670;6.184;2023-01-06T12:10:15;99662.84;;;11.72;100.00
50123;BME280;36021;48.670;6.184;2023-01-06T12:12:42;99667.88;;;12.04;100.00
50123;BME280;36021;48.670;6.184;2023-01-06T12:15:11;99657.66;;;12.04;100.00
50123;BME280;36021;48.670;6.184;2023-01-06T12:17:51;99659.44;;;11.85;100.00
50123;BME280;36021;48.670;6.184;2023-01-06T12:20:23;99654.56;;;11.72;100.00
50123;BME280;36021;48.670;6.184;2023-01-06T12:30:25;99647.34;;;11.76;100.00
50123;BME280;36021;48.670;6.184;2023-01-06T12:32:53;99651.22;;;11.70;100.00
50123;BME280;36021;48.670;6.184;2023-01-06T12:35:22;99653.22;;;11.64;100.00
50123;BME280;36021;48.670;6.184;2023-01-06T12:37:53;99646.16;;;11.43;100.00
50123;BME280;36021;48.670;6.184;2023-01-06T12:42:51;99652.88;;;11.27;100.00
50123;BME280;36021;48.670;6.184;2023-01-06T12:47:52;99649.84;;;11.28;100.00
50123;BME280;36021;48.670;6.184;2023-01-06T12:52:56;99639.13;;;11.22;100.00
50123;BME280;36021;48.670;6.184;2023-01-06T12:55:29;99641.06;;;11.16;100.00
50123;BME280;36021;48.670;6.184;2023-01-06T13:05:51;99648.84;;;11.04;100.00
50123;BME280;36021;48.670;6.184;2023-01-06T13:10:57;99643.38;;;10.94;100.00
50123;BME280;36021;48.670;6.184;2023-01-06T13:15:53;99660.19;;;10.97;100.00
50123;BME280;36021;48.670;6.184;2023-01-06T13:20:50;99655.50;;;10.98;100.00
50123;BME280;36021;48.670;6.184;2023-01-06T13:26:29;99650.53;;;10.90;100.00
50123;BME280;36021;48.670;6.184;2023-01-06T13:34:19;99642.81;;;11.02;100.00
50123;BME280;36021;48.670;6.184;2023-01-06T13:36:55;99649.41;;;11.01;100.00
50123;BME280;36021;48.670;6.184;2023-01-06T13:39:30;99652.97;;;11.07;100.00
50123;BME280;36021;48.670;6.184;2023-01-06T13:41:59;99652.69;;;11.03;100.00
50123;BME280;36021;48.670;6.184;2023-01-06T13:44:26;99651.06;;;11.02;100.00
50123;BME280;36021;48.670;6.184;2023-01-06T13:46:55;99653.28;;;11.00;100.00
50123;BME280;36021;48.670;6.184;2023-01-06T13:49:24;99640.88;;;11.03;100.00
50123;BME280;36021;48.670;6.184;2023-01-06T13:51:52;99635.28;;;11.13;100.00
50123;BME280;36021;48.670;6.184;2023-01-06T13:59:49;99630.88;;;11.12;100.00
50123;BME280;36021;48.670;6.184;2023-01-06T14:05:03;99632.00;;;11.11;100.00
50123;BME280;36021;48.670;6.184;2023-01-06T14:07:33;99626.25;;;10.97;100.00
50123;BME280;36021;48.670;6.184;2023-01-06T14:09:59;99629.28;;;11.06;100.00
50123;BME280;36021;48.670;6.184;2023-01-06T14:12:26;99620.75;;;10.97;100.00
50123;BME280;36021;48.670;6.184;2023-01-06T14:14:53;99622.97;;;10.95;100.00
50123;BME280;36021;48.670;6.184;2023-01-06T14:17:39;99630.94;;;10.96;100.00
50123;BME280;36021;48.670;6.184;2023-01-06T14:20:05;99625.69;;;11.00;100.00
50123;BME280;36021;48.670;6.184;2023-01-06T14:22:44;99622.66;;;11.02;100.00
50123;BME280;36021;48.670;6.184;2023-01-06T14:25:22;99620.44;;;11.04;100.00
50123;BME280;36021;48.670;6.184;2023-01-06T14:35:10;99632.81;;;11.06;100.00
50123;BME280;36021;48.670;6.184;2023-01-06T14:37:45;99631.72;;;11.07;100.00
50123;BME280;36021;48.670;6.184;2023-01-06T14:40:16;99625.69;;;11.05;100.00
50123;BME280;36021;48.670;6.184;2023-01-06T14:42:43;99625.63;;;11.10;100.00
50123;BME280;36021;48.670;6.184;2023-01-06T14:45:23;99628.44;;;11.05;100.00
50123;BME280;36021;48.670;6.184;2023-01-06T14:48:12;99627.88;;;11.03;100.00
50123;BME280;36021;48.670;6.184;2023-01-06T14:50:43;99635.13;;;10.89;100.00
50123;BME280;36021;48.670;6.184;2023-01-06T14:55:39;99622.69;;;10.91;100.00
50123;BME280;36021;48.670;6.184;2023-01-06T15:00:53;99631.53;;;10.83;100.00
50123;BME280;36021;48.670;6.184;2023-01-06T15:03:20;99629.09;;;10.82;100.00
50123;BME280;36021;48.670;6.184;2023-01-06T15:05:46;99632.94;;;10.81;100.00
50123;BME280;36021;48.670;6.184;2023-01-06T15:13:17;99631.94;;;10.57;100.00
50123;BME280;36021;48.670;6.184;2023-01-06T15:15:44;99642.41;;;10.50;100.00
50123;BME280;36021;48.670;6.184;2023-01-06T15:18:10;99636.06;;;10.49;100.00
50123;BME280;36021;48.670;6.184;2023-01-06T15:20:38;99641.31;;;10.56;100.00
50123;BME280;36021;48.670;6.184;2023-01-06T15:23:04;99641.31;;;10.56;100.00
50123;BME280;36021;48.670;6.184;2023-01-06T15:25:32;99634.69;;;10.57;100.00
50123;BME280;36021;48.670;6.184;2023-01-06T15:27:59;99645.72;;;10.52;100.00
50123;BME280;36021;48.670;6.184;2023-01-06T15:30:26;99648.50;;;10.47;100.00